Weather at Washington Dulles International Airport

Public forecast

Using degrees Fahrenheit for public forecast. Weather courtesy of forecast.io.

Current aviation weather report (METAR) for Washington Dulles International Airport

Retrieved 2022/07/06 02:52 UTC (31 minutes ago):

KIAD 060252Z 21004KT 10SM FEW080 SCT160 26/22 A2988 RMK AO2 SLP114 T02610222 56001

Aviation forecast (TAF) for Washington Dulles International Airport

Retrieved 2022-07-06 00:42 UTC (3 hours ago):

TAF KIAD 052340Z 0600/0706 22008KT P6SM FEW030 SCT080 BKN160 FM060600 21003KT P6SM SCT080 BKN250 FM061100 25003KT P6SM SCT250 FM061500 29005KT P6SM FEW040 SCT250 FM061800 32007KT P6SM SHRA FEW040 BKN150 FM070100 00000KT P6SM SCT150